createdAt,value
2019-01-19T00:01:15.240Z,9.10
2019-01-19T00:06:56.713Z,7.27
2019-01-19T00:12:09.944Z,10.00
2019-01-19T00:17:37.098Z,8.60
2019-01-19T00:23:11.810Z,8.97
2019-01-19T00:28:24.012Z,11.57
2019-01-19T00:33:58.140Z,6.97
2019-01-19T00:39:24.685Z,7.77
2019-01-19T00:44:38.740Z,7.83
2019-01-19T00:49:49.838Z,12.30
2019-01-19T00:55:15.293Z,7.50
2019-01-19T01:00:30.924Z,8.00
2019-01-19T01:05:59.949Z,7.80
2019-01-19T01:11:13.170Z,11.03
2019-01-19T01:16:49.455Z,9.87
2019-01-19T01:22:22.797Z,8.13
2019-01-19T01:28:14.025Z,6.37
2019-01-19T01:34:06.325Z,9.03
2019-01-19T01:39:56.417Z,7.83
2019-01-19T01:45:26.831Z,9.40
2019-01-19T01:50:42.402Z,9.67
2019-01-19T01:55:50.323Z,7.27
2019-01-19T02:01:09.247Z,9.73
2019-01-19T02:06:34.909Z,7.17
2019-01-19T02:12:13.869Z,8.93
2019-01-19T02:17:57.747Z,8.80
2019-01-19T02:23:24.429Z,7.30
2019-01-19T02:29:07.607Z,7.10
2019-01-19T02:34:38.851Z,9.53
2019-01-19T02:40:32.046Z,8.30
2019-01-19T02:46:07.902Z,9.20
2019-01-19T02:51:38.681Z,10.47
2019-01-19T02:57:20.869Z,6.10
2019-01-19T03:02:53.580Z,7.43
2019-01-19T03:08:24.873Z,7.37
2019-01-19T03:14:08.416Z,11.67
2019-01-19T03:19:29.438Z,9.67
2019-01-19T03:25:11.846Z,13.00
2019-01-19T03:31:03.925Z,7.10
2019-01-19T03:36:38.329Z,9.63
2019-01-19T03:41:53.298Z,8.77
2019-01-19T03:47:38.184Z,8.27
2019-01-19T03:53:19.975Z,7.97
2019-01-19T03:58:33.891Z,8.93
2019-01-19T04:03:59.510Z,7.23
2019-01-19T04:09:33.474Z,6.57
2019-01-19T04:15:16.401Z,12.03
2019-01-19T04:20:32.942Z,6.57
2019-01-19T04:25:54.453Z,8.73
2019-01-19T04:30:59.125Z,5.95
2019-01-19T04:36:04.584Z,9.05
2019-01-19T04:41:09.325Z,7.83
2019-01-19T04:46:14.043Z,6.47
2019-01-19T04:51:18.802Z,12.47
2019-01-19T04:56:23.535Z,7.93
2019-01-19T05:01:28.277Z,9.30
2019-01-19T05:06:32.943Z,10.97
2019-01-19T05:11:37.647Z,11.83
2019-01-19T05:16:42.365Z,11.77
2019-01-19T05:21:47.022Z,9.37
2019-01-19T05:26:51.715Z,6.90
2019-01-19T05:31:56.366Z,9.20
2019-01-19T05:37:01.071Z,12.23
2019-01-19T05:42:05.817Z,14.43
2019-01-19T05:47:10.569Z,9.53
2019-01-19T05:52:15.232Z,11.33
2019-01-19T05:57:19.958Z,14.30
2019-01-19T06:02:26.347Z,11.33
2019-01-19T06:07:31.097Z,8.40
2019-01-19T06:12:35.776Z,14.33
2019-01-19T06:17:40.420Z,10.97
2019-01-19T06:22:45.348Z,13.93
2019-01-19T06:27:50.073Z,13.10
2019-01-19T06:32:54.875Z,11.60
2019-01-19T06:37:59.592Z,11.53
2019-01-19T06:43:04.528Z,8.33
2019-01-19T06:48:09.374Z,13.00
2019-01-19T06:53:14.128Z,15.23
2019-01-19T06:58:18.920Z,14.30
2019-01-19T07:03:23.600Z,15.93
2019-01-19T07:08:28.395Z,13.73
2019-01-19T07:13:33.089Z,13.27
2019-01-19T07:18:37.789Z,16.97
2019-01-19T07:23:42.472Z,18.57
2019-01-19T07:28:47.194Z,15.50
2019-01-19T07:33:51.938Z,17.07
2019-01-19T07:38:56.720Z,11.55
2019-01-19T07:44:01.633Z,16.33
2019-01-19T07:49:06.462Z,14.83
2019-01-19T07:54:11.275Z,13.80
2019-01-19T07:59:15.993Z,13.40
2019-01-19T08:04:20.797Z,13.48
2019-01-19T08:09:25.517Z,17.10
2019-01-19T08:14:30.197Z,15.10
2019-01-19T08:19:34.873Z,14.67
2019-01-19T08:24:39.581Z,18.67
2019-01-19T08:29:44.316Z,18.43
2019-01-19T08:34:49.025Z,20.33
2019-01-19T08:39:53.885Z,18.23
2019-01-19T08:44:59.031Z,18.53
2019-01-19T08:50:04.409Z,20.13
2019-01-19T08:55:09.600Z,19.83
2019-01-19T09:00:15.996Z,17.50
2019-01-19T09:05:20.772Z,20.92
2019-01-19T09:10:25.576Z,23.10
2019-01-19T09:15:30.273Z,18.63
2019-01-19T09:20:34.977Z,22.40
2019-01-19T09:25:39.663Z,17.83
2019-01-19T09:30:44.443Z,21.97
2019-01-19T09:35:49.186Z,22.17
2019-01-19T09:40:54.164Z,22.67
2019-01-19T09:45:58.922Z,21.07
2019-01-19T09:51:04.615Z,23.63
2019-01-19T09:56:09.368Z,22.27
2019-01-19T10:01:14.057Z,24.12
2019-01-19T10:06:18.944Z,23.10
2019-01-19T10:11:23.844Z,23.23
2019-01-19T10:16:28.843Z,22.03
2019-01-19T10:21:33.834Z,26.40
2019-01-19T10:26:38.608Z,28.40
2019-01-19T10:31:43.332Z,23.57
2019-01-19T10:36:48.044Z,24.10
2019-01-19T10:41:52.736Z,25.73
2019-01-19T10:46:57.786Z,28.70
2019-01-19T10:52:02.478Z,22.63
2019-01-19T10:57:07.188Z,24.60
2019-01-19T11:02:11.965Z,27.00
2019-01-19T11:07:16.783Z,29.30
2019-01-19T11:12:21.561Z,23.43
2019-01-19T11:17:26.407Z,27.10
2019-01-19T11:22:31.151Z,24.63
2019-01-19T11:27:35.863Z,26.63
2019-01-19T11:32:44.390Z,25.57
2019-01-19T11:37:47.215Z,27.13
2019-01-19T11:42:51.910Z,25.97
2019-01-19T11:47:56.629Z,25.37
2019-01-19T11:53:01.330Z,28.93
2019-01-19T11:58:06.842Z,28.00
2019-01-19T12:03:11.862Z,23.80
2019-01-19T12:08:19.647Z,22.77
2019-01-19T12:13:23.131Z,24.07
2019-01-19T12:18:27.861Z,28.47
2019-01-19T12:23:32.731Z,24.87
2019-01-19T12:28:37.428Z,26.90
2019-01-19T12:33:42.133Z,25.83
2019-01-19T12:38:46.869Z,26.13
2019-01-19T12:43:51.567Z,22.60
2019-01-19T12:48:56.321Z,29.60
2019-01-19T12:54:01.020Z,19.70
2019-01-19T12:59:05.746Z,24.40
2019-01-19T13:04:10.419Z,18.47
2019-01-19T13:09:21.504Z,24.43
2019-01-19T13:14:26.707Z,24.67
2019-01-19T13:19:44.000Z,22.83
2019-01-19T13:25:09.761Z,27.50
2019-01-19T13:30:38.130Z,25.37
2019-01-19T13:36:09.813Z,22.17
2019-01-19T13:41:50.592Z,26.30
2019-01-19T13:47:32.274Z,30.30
2019-01-19T13:52:55.765Z,29.33
2019-01-19T13:58:12.630Z,26.73
2019-01-19T14:03:46.406Z,31.33
2019-01-19T14:09:27.894Z,28.67
2019-01-19T14:15:08.386Z,26.33
2019-01-19T14:20:40.926Z,31.15
2019-01-19T14:26:25.629Z,29.57
2019-01-19T14:31:45.189Z,26.60
2019-01-19T14:37:25.554Z,28.17
2019-01-19T14:43:20.014Z,28.93
2019-01-19T14:48:52.818Z,28.17
2019-01-19T14:54:38.404Z,26.10
2019-01-19T15:00:28.093Z,26.47
2019-01-19T15:06:12.952Z,27.07
2019-01-19T15:11:45.062Z,30.33
2019-01-19T15:17:17.592Z,30.03
2019-01-19T15:22:59.679Z,29.67
2019-01-19T15:28:54.057Z,29.53
2019-01-19T15:34:29.333Z,31.27
2019-01-19T15:40:05.190Z,26.83
2019-01-19T15:45:43.489Z,27.13
2019-01-19T15:51:28.103Z,34.77
2019-01-19T15:57:15.919Z,32.30
2019-01-19T16:03:16.846Z,34.37
